Portada
METAR-TAF:

METAR-TAF

Aeropuertos :

Aeropuerto Internacional Flamingo

Bonaire, Antillas Neerlandesas

latitud: 12-09N, longitud: 068-17W, altitud: 6 m

Observación

El informe se hizo hace 1 hora y 8 minutos, a las 18:55 UTC
Viento 16 kt del este, variando entre este-noreste y sureste
Temperatura 29°C
Humedad 66%
Presión 1013 hPa
Visibilidad 10 km o más
Nubes dispersas a una altura de 2100 ft

METAR: TNCB 181855Z 09016KT 060V130 9999 SCT021 29/22 Q1013

Hora: 16:03 (20:03 UTC)

Pronóstico

El informe se hizo hace 2 horas y 54 minutos, a las 17:09 UTC
Pronóstico válido del 18 a las 18 UTC al 19 a las 24 UTC
Viento 15 kt del este
Visibilidad 10 km o más
Nubes dispersas a una altura de 1800 ft

TAF: TNCB 181709Z 1818/1924 09015KT 9999 SCT018

Observaciones y pronósticos meteorológicos de más de 4000 aeropuertos (mensajes METAR y TAF).

Los puntos amarillos y rojos representan las estaciones disponibles.

Ponga el ratón en el punto deseado para ver el nombre de la estación.

Haga clic para ver las observaciones y los pronósticos meteorológicos.

Para cambiar el mapa : haga clic en los botones verdes con una cruz de color negro para hacer un zoom, en el botón verde con un guión para alejar o en las flechas verdes para mapas adyacentes.


METAR-TAF: